Sakura — JG5711 — position and weather

sailwx.info

Track history (hours):
 
Tides and Currents Weather Stations Pressure Air Temp Water Temp Dewpoint Dewpoint Depression Visibility Wind Speed Wind Dir Waves Ship Positions

Sakura

Last reported at 2018-Jan-23 06:01 UTC. Time now 2018-Jan-23 06:26 UTC.
Position N 35°28' E 139°40'.

Length 32 m; draft 3.6 m.

Type: Tug. MMSI: 431101178.

Date/timePositionNaut miles runAvg speedWind from/ knotsBaromVisibWave heightAir tempDewpointWater temp
2018-Jan-23 06:01N 35°28' E 139°40'0 0.0
2018-Jan-23 05:30N 35°28' E 139°40'0 0.0
2018-Jan-23 05:00N 35°28' E 139°40'0 0.0
2018-Jan-23 04:30N 35°28' E 139°40'0 0.0
2018-Jan-23 04:00N 35°28' E 139°40'0 0.0
2018-Jan-23 03:30N 35°28' E 139°40'0 0.0
2018-Jan-23 03:00N 35°28' E 139°40'0 0.0
2018-Jan-23 02:29N 35°28' E 139°40'0 0.0
2018-Jan-23 02:00N 35°28' E 139°40'0 0.0
2018-Jan-23 01:30N 35°28' E 139°40'0 0.0
2018-Jan-23 01:00N 35°28' E 139°40'0 0.0
2018-Jan-23 00:30N 35°28' E 139°40'0 0.0
2018-Jan-23 00:00N 35°28' E 139°40'1 1.9
2018-Jan-22 23:30N 35°27' E 139°39'1 1.4
2018-Jan-22 23:01N 35°27' E 139°39'0 0.0
2018-Jan-22 22:31N 35°27' E 139°39'0 0.0
2018-Jan-22 22:01N 35°27' E 139°39'0 0.0
2018-Jan-22 21:30N 35°27' E 139°39'0 0.0
2018-Jan-22 21:01N 35°27' E 139°39'0 0.0
2018-Jan-22 20:30N 35°27' E 139°39'0 0.0
2018-Jan-22 20:00N 35°27' E 139°39'0 0.0
2018-Jan-22 19:30N 35°27' E 139°39'0 0.0
2018-Jan-22 19:00N 35°27' E 139°39'0 0.0
2018-Jan-22 18:30N 35°27' E 139°39'0 0.0
2018-Jan-22 18:00N 35°27' E 139°39'0 0.0
2018-Jan-22 17:31N 35°27' E 139°39'0 0.0
2018-Jan-22 17:00N 35°27' E 139°39'0 0.0
2018-Jan-22 16:30N 35°27' E 139°39'0 0.0
2018-Jan-22 16:00N 35°27' E 139°39'0 0.0
2018-Jan-22 15:30N 35°27' E 139°39'0 0.0
2018-Jan-22 15:01N 35°27' E 139°39'0 0.0
2018-Jan-22 14:30N 35°27' E 139°39'0 0.0
2018-Jan-22 14:00N 35°27' E 139°39'0 0.0
2018-Jan-22 13:30N 35°27' E 139°39'0 0.0
2018-Jan-22 13:00N 35°27' E 139°39'0 0.0
2018-Jan-22 12:29N 35°27' E 139°39'0 0.0
2018-Jan-22 12:00N 35°27' E 139°39'0 0.0
2018-Jan-22 11:31N 35°27' E 139°39'0 0.0
2018-Jan-22 11:00N 35°27' E 139°39'0 0.0
2018-Jan-22 10:30N 35°27' E 139°39'0 0.0
2018-Jan-22 10:00N 35°27' E 139°39'0 0.0
2018-Jan-22 09:30N 35°27' E 139°39'0 0.0
2018-Jan-22 08:59N 35°27' E 139°39'0 0.0
2018-Jan-22 08:30N 35°27' E 139°39'0 0.0
2018-Jan-22 08:00N 35°27' E 139°39'0 0.0
2018-Jan-22 00:22N 35°27' E 139°39'1 3.2
2018-Jan-22 00:00N 35°27' E 139°40'4 7.8
2018-Jan-21 23:31N 35°24' E 139°41'1 1.2
2018-Jan-21 23:00N 35°24' E 139°41'1 2.9
2018-Jan-21 22:31N 35°23' E 139°41'0 0.5
2018-Jan-21 22:01N 35°23' E 139°41'0 0.9
2018-Jan-21 21:31N 35°23' E 139°41'0 0.0
2018-Jan-21 21:00N 35°23' E 139°41'0 0.0
2018-Jan-21 20:30N 35°23' E 139°41'0 0.0
2018-Jan-21 20:01N 35°23' E 139°41'0 0.0
2018-Jan-21 19:31N 35°23' E 139°41'0 0.1
2018-Jan-21 19:01N 35°23' E 139°41'0 0.0
2018-Jan-21 18:30N 35°23' E 139°41'0 0.0
2018-Jan-21 18:00N 35°23' E 139°41'0 0.0
2018-Jan-21 17:31N 35°23' E 139°41'0 0.0
2018-Jan-21 17:01N 35°23' E 139°41'0 0.0
2018-Jan-21 16:30N 35°23' E 139°41'0 0.0
2018-Jan-21 16:01N 35°23' E 139°41'0 0.0
2018-Jan-21 15:31N 35°23' E 139°41'1 2.5
2018-Jan-21 15:01N 35°24' E 139°41'0 0.7
2018-Jan-21 14:31N 35°24' E 139°41'1 1.6
2018-Jan-21 14:01N 35°23' E 139°41'4 7.8
2018-Jan-21 13:30N 35°27' E 139°40'1 1.4
2018-Jan-21 12:31N 35°27' E 139°39'0 0.0
2018-Jan-21 12:01N 35°27' E 139°39'0 0.0
2018-Jan-21 11:31N 35°27' E 139°39'0 0.0
2018-Jan-21 11:01N 35°27' E 139°39'0 0.0
2018-Jan-21 10:31N 35°27' E 139°39'0 0.0
2018-Jan-21 10:00N 35°27' E 139°39'2 3.8
2018-Jan-21 09:31N 35°27' E 139°41'1 1.1
2018-Jan-21 09:00N 35°27' E 139°41'0 0.1
2018-Jan-21 08:30N 35°28' E 139°41'1 1.1
2018-Jan-21 08:00N 35°28' E 139°42'0 0.0
2018-Jan-21 07:30N 35°28' E 139°42'0 0.0
2018-Jan-21 07:01N 35°28' E 139°42'0 0.0
2018-Jan-21 06:30N 35°28' E 139°42'2 3.6
2018-Jan-21 06:00N 35°26' E 139°42'2 5.0
2018-Jan-21 05:31N 35°24' E 139°40'0 0.2
2018-Jan-21 05:00N 35°24' E 139°40'2 3.1
2018-Jan-21 04:30N 35°23' E 139°41'1 1.5
2018-Jan-21 04:01N 35°22' E 139°42'4 7.0
2018-Jan-21 03:31N 35°26' E 139°42'2 4.3
2018-Jan-21 03:01N 35°28' E 139°41'0 0.0
2018-Jan-21 02:31N 35°28' E 139°41'0 0.0
2018-Jan-21 02:01N 35°28' E 139°41'0 0.0
2018-Jan-21 01:31N 35°28' E 139°41'0 0.0
2018-Jan-21 01:01N 35°28' E 139°41'0 0.0
2018-Jan-21 00:31N 35°28' E 139°41'0 0.0
2018-Jan-21 00:00N 35°28' E 139°41'0 0.0
2018-Jan-20 23:30N 35°28' E 139°41'0 0.0
2018-Jan-20 23:01N 35°28' E 139°41'3 5.4
2018-Jan-20 22:31N 35°27' E 139°44'4 8.2
2018-Jan-20 22:01N 35°30' E 139°47'1 1.8
2018-Jan-20 21:31N 35°31' E 139°46'4 8.1
2018-Jan-20 21:00N 35°29' E 139°42'3 6.2
2018-Jan-20 20:31N 35°27' E 139°39'0 0.0
2018-Jan-20 20:01N 35°27' E 139°39'0 0.0
2018-Jan-20 08:39N 35°27' E 139°39'0 0.0
2018-Jan-20 08:30N 35°27' E 139°39'3 5.9
2018-Jan-20 08:01N 35°29' E 139°42'4 8.4
2018-Jan-20 07:31N 35°31' E 139°46'1 1.0
2018-Jan-20 07:01N 35°31' E 139°46'3 5.7
2018-Jan-20 06:30N 35°29' E 139°43'2 4.5
2018-Jan-20 06:00N 35°27' E 139°43'2 4.9
2018-Jan-20 05:31N 35°27' E 139°40'1 2.0
2018-Jan-20 05:00N 35°27' E 139°39'0 0.0
2018-Jan-20 04:30N 35°27' E 139°39'0 0.0
2018-Jan-20 04:00N 35°27' E 139°39'0 0.0
2018-Jan-20 03:31N 35°27' E 139°39'0 0.0
2018-Jan-20 03:01N 35°27' E 139°39'0 0.0
2018-Jan-20 02:31N 35°27' E 139°39'0 0.0
2018-Jan-20 02:01N 35°27' E 139°39'0 0.0
2018-Jan-20 01:31N 35°27' E 139°39'1 2.6
2018-Jan-20 01:01N 35°28' E 139°40'0 0.3
2018-Jan-20 00:31N 35°28' E 139°40'3 5.7
2018-Jan-20 00:01N 35°26' E 139°43'1 2.5
2018-Jan-19 23:31N 35°27' E 139°42'0 0.0
2018-Jan-19 23:00N 35°27' E 139°42'1 1.2
2018-Jan-19 22:30N 35°27' E 139°43'5 9.1
2018-Jan-19 21:59N 35°30' E 139°47'1 2.4
2018-Jan-19 21:31N 35°31' E 139°46'5 9.5
2018-Jan-19 21:00N 35°28' E 139°41'2 4.6
2018-Jan-19 20:30N 35°27' E 139°39'0 0.2
2018-Jan-19 20:01N 35°27' E 139°39'0 0.0
2018-Jan-19 19:30N 35°27' E 139°39'0 0.0
2018-Jan-19 08:25N 35°27' E 139°39'0 0.0
2018-Jan-19 08:00N 35°27' E 139°39'0 0.0
2018-Jan-19 07:30N 35°27' E 139°39'0 0.0
2018-Jan-19 07:00N 35°27' E 139°39'0 0.0
2018-Jan-19 06:30N 35°27' E 139°39'0 0.0
2018-Jan-19 06:00N 35°27' E 139°39'0 0.0
2018-Jan-19 05:30N 35°27' E 139°39'0 0.0
2018-Jan-19 05:00N 35°27' E 139°39'0 0.0
2018-Jan-19 04:30N 35°27' E 139°39'0 0.0
2018-Jan-19 04:00N 35°27' E 139°39'0 0.0
2018-Jan-19 03:30N 35°27' E 139°39'0 0.0
2018-Jan-19 03:01N 35°27' E 139°39'0 0.0
2018-Jan-19 02:31N 35°27' E 139°39'0 0.0
2018-Jan-19 02:00N 35°27' E 139°39'2 4.9
2018-Jan-19 01:30N 35°28' E 139°41'5 9.4
2018-Jan-19 01:00N 35°31' E 139°46'0 0.2
2018-Jan-19 00:30N 35°31' E 139°46'1 1.5
2018-Jan-19 00:00N 35°30' E 139°46'0 0.1
2018-Jan-18 23:30N 35°30' E 139°46'5 9.8
2018-Jan-18 23:00N 35°28' E 139°41'1 1.8
2018-Jan-18 22:30N 35°27' E 139°41'1 2.0
2018-Jan-18 22:00N 35°26' E 139°42'2 3.9
2018-Jan-18 21:31N 35°26' E 139°44'0 0.2
2018-Jan-18 21:00N 35°26' E 139°44'5 9.5
2018-Jan-18 20:30N 35°27' E 139°39'0 0.0
2018-Jan-18 20:00N 35°27' E 139°39'0 0.0
2018-Jan-18 19:30N 35°27' E 139°39'0 0.0
2018-Jan-18 19:01N 35°27' E 139°39'0 0.0
2018-Jan-18 18:29N 35°27' E 139°39'0 0.0
2018-Jan-18 18:00N 35°27' E 139°39'0 0.0
2018-Jan-18 17:31N 35°27' E 139°39'0 0.0
2018-Jan-18 17:01N 35°27' E 139°39'0 0.0
2018-Jan-18 16:30N 35°27' E 139°39'0 0.0
2018-Jan-18 16:01N 35°27' E 139°39'0 0.0
2018-Jan-18 15:30N 35°27' E 139°39'0 0.0
2018-Jan-18 15:01N 35°27' E 139°39'0 0.0
2018-Jan-18 14:31N 35°27' E 139°39'0 0.0
2018-Jan-18 14:00N 35°27' E 139°39'0 0.0
2018-Jan-18 13:30N 35°27' E 139°39'0 0.0
2018-Jan-18 13:00N 35°27' E 139°39'0 0.0
2018-Jan-18 12:30N 35°27' E 139°39'0 0.0
2018-Jan-18 12:00N 35°27' E 139°39'0 0.0
2018-Jan-18 11:30N 35°27' E 139°39'0 0.0
2018-Jan-18 11:00N 35°27' E 139°39'0 0.0
2018-Jan-18 10:30N 35°27' E 139°39'0 0.0
2018-Jan-18 09:59N 35°27' E 139°39'0 0.0
2018-Jan-18 09:30N 35°27' E 139°39'0 0.0
2018-Jan-18 09:01N 35°27' E 139°39'0 0.0
2018-Jan-18 08:30N 35°27' E 139°39'0 0.0
2018-Jan-18 08:00N 35°27' E 139°39'0 0.0
2018-Jan-18 07:30N 35°27' E 139°39'1 1.5
2018-Jan-18 07:00N 35°27' E 139°39'0 0.0
2018-Jan-18 06:29N 35°27' E 139°39'2 4.9
2018-Jan-18 06:00N 35°29' E 139°42'4 8.7
2018-Jan-18 05:31N 35°31' E 139°46'1 1.5
2018-Jan-18 05:00N 35°30' E 139°45'4 7.7
2018-Jan-18 04:31N 35°27' E 139°43'1 1.2
2018-Jan-18 04:00N 35°28' E 139°43'3 6.2
2018-Jan-18 03:30N 35°27' E 139°40'1 1.6
2018-Jan-18 03:00N 35°27' E 139°39'0 0.0
2018-Jan-18 02:30N 35°27' E 139°39'0 0.0
2018-Jan-18 02:01N 35°27' E 139°39'0 0.0
2018-Jan-18 01:30N 35°27' E 139°39'0 0.0
2018-Jan-18 01:01N 35°27' E 139°39'0 0.0
2018-Jan-18 00:00N 35°27' E 139°39'0 0.0
2018-Jan-17 23:58N 35°27' E 139°39'  
Track history (hours):
 
Tides and Currents Weather Stations Pressure Air Temp Water Temp Dewpoint Dewpoint Depression Visibility Wind Speed Wind Dir Waves Ship Positions

Sakura

Last reported at 2018-Jan-23 06:01 UTC. Time now 2018-Jan-23 06:26 UTC.
Position N 35°28' E 139°40'.

Length 32 m; draft 3.6 m.

Type: Tug. MMSI: 431101178.

Date/timePositionNaut miles runAvg speedWind from/ knotsBaromVisibWave heightAir tempDewpointWater temp
2018-Jan-23 06:01N 35°28' E 139°40'0 0.0
2018-Jan-23 05:30N 35°28' E 139°40'0 0.0
2018-Jan-23 05:00N 35°28' E 139°40'0 0.0
2018-Jan-23 04:30N 35°28' E 139°40'0 0.0
2018-Jan-23 04:00N 35°28' E 139°40'0 0.0
2018-Jan-23 03:30N 35°28' E 139°40'0 0.0
2018-Jan-23 03:00N 35°28' E 139°40'0 0.0
2018-Jan-23 02:29N 35°28' E 139°40'0 0.0
2018-Jan-23 02:00N 35°28' E 139°40'0 0.0
2018-Jan-23 01:30N 35°28' E 139°40'0 0.0
2018-Jan-23 01:00N 35°28' E 139°40'0 0.0
2018-Jan-23 00:30N 35°28' E 139°40'0 0.0
2018-Jan-23 00:00N 35°28' E 139°40'1 1.9
2018-Jan-22 23:30N 35°27' E 139°39'1 1.4
2018-Jan-22 23:01N 35°27' E 139°39'0 0.0
2018-Jan-22 22:31N 35°27' E 139°39'0 0.0
2018-Jan-22 22:01N 35°27' E 139°39'0 0.0
2018-Jan-22 21:30N 35°27' E 139°39'0 0.0
2018-Jan-22 21:01N 35°27' E 139°39'0 0.0
2018-Jan-22 20:30N 35°27' E 139°39'0 0.0
2018-Jan-22 20:00N 35°27' E 139°39'0 0.0
2018-Jan-22 19:30N 35°27' E 139°39'0 0.0
2018-Jan-22 19:00N 35°27' E 139°39'0 0.0
2018-Jan-22 18:30N 35°27' E 139°39'0 0.0
2018-Jan-22 18:00N 35°27' E 139°39'0 0.0
2018-Jan-22 17:31N 35°27' E 139°39'0 0.0
2018-Jan-22 17:00N 35°27' E 139°39'0 0.0
2018-Jan-22 16:30N 35°27' E 139°39'0 0.0
2018-Jan-22 16:00N 35°27' E 139°39'0 0.0
2018-Jan-22 15:30N 35°27' E 139°39'0 0.0
2018-Jan-22 15:01N 35°27' E 139°39'0 0.0
2018-Jan-22 14:30N 35°27' E 139°39'0 0.0
2018-Jan-22 14:00N 35°27' E 139°39'0 0.0
2018-Jan-22 13:30N 35°27' E 139°39'0 0.0
2018-Jan-22 13:00N 35°27' E 139°39'0 0.0
2018-Jan-22 12:29N 35°27' E 139°39'0 0.0
2018-Jan-22 12:00N 35°27' E 139°39'0 0.0
2018-Jan-22 11:31N 35°27' E 139°39'0 0.0
2018-Jan-22 11:00N 35°27' E 139°39'0 0.0
2018-Jan-22 10:30N 35°27' E 139°39'0 0.0
2018-Jan-22 10:00N 35°27' E 139°39'0 0.0
2018-Jan-22 09:30N 35°27' E 139°39'0 0.0
2018-Jan-22 08:59N 35°27' E 139°39'0 0.0
2018-Jan-22 08:30N 35°27' E 139°39'0 0.0
2018-Jan-22 08:00N 35°27' E 139°39'0 0.0
2018-Jan-22 00:22N 35°27' E 139°39'1 3.2
2018-Jan-22 00:00N 35°27' E 139°40'4 7.8
2018-Jan-21 23:31N 35°24' E 139°41'1 1.2
2018-Jan-21 23:00N 35°24' E 139°41'1 2.9
2018-Jan-21 22:31N 35°23' E 139°41'0 0.5
2018-Jan-21 22:01N 35°23' E 139°41'0 0.9
2018-Jan-21 21:31N 35°23' E 139°41'0 0.0
2018-Jan-21 21:00N 35°23' E 139°41'0 0.0
2018-Jan-21 20:30N 35°23' E 139°41'0 0.0
2018-Jan-21 20:01N 35°23' E 139°41'0 0.0
2018-Jan-21 19:31N 35°23' E 139°41'0 0.1
2018-Jan-21 19:01N 35°23' E 139°41'0 0.0
2018-Jan-21 18:30N 35°23' E 139°41'0 0.0
2018-Jan-21 18:00N 35°23' E 139°41'0 0.0
2018-Jan-21 17:31N 35°23' E 139°41'0 0.0
2018-Jan-21 17:01N 35°23' E 139°41'0 0.0
2018-Jan-21 16:30N 35°23' E 139°41'0 0.0
2018-Jan-21 16:01N 35°23' E 139°41'0 0.0
2018-Jan-21 15:31N 35°23' E 139°41'1 2.5
2018-Jan-21 15:01N 35°24' E 139°41'0 0.7
2018-Jan-21 14:31N 35°24' E 139°41'1 1.6
2018-Jan-21 14:01N 35°23' E 139°41'4 7.8
2018-Jan-21 13:30N 35°27' E 139°40'1 1.4
2018-Jan-21 12:31N 35°27' E 139°39'0 0.0
2018-Jan-21 12:01N 35°27' E 139°39'0 0.0
2018-Jan-21 11:31N 35°27' E 139°39'0 0.0
2018-Jan-21 11:01N 35°27' E 139°39'0 0.0
2018-Jan-21 10:31N 35°27' E 139°39'0 0.0
2018-Jan-21 10:00N 35°27' E 139°39'2 3.8
2018-Jan-21 09:31N 35°27' E 139°41'1 1.1
2018-Jan-21 09:00N 35°27' E 139°41'0 0.1
2018-Jan-21 08:30N 35°28' E 139°41'1 1.1
2018-Jan-21 08:00N 35°28' E 139°42'0 0.0
2018-Jan-21 07:30N 35°28' E 139°42'0 0.0
2018-Jan-21 07:01N 35°28' E 139°42'0 0.0
2018-Jan-21 06:30N 35°28' E 139°42'2 3.6
2018-Jan-21 06:00N 35°26' E 139°42'2 5.0
2018-Jan-21 05:31N 35°24' E 139°40'0 0.2
2018-Jan-21 05:00N 35°24' E 139°40'2 3.1
2018-Jan-21 04:30N 35°23' E 139°41'1 1.5
2018-Jan-21 04:01N 35°22' E 139°42'4 7.0
2018-Jan-21 03:31N 35°26' E 139°42'2 4.3
2018-Jan-21 03:01N 35°28' E 139°41'0 0.0
2018-Jan-21 02:31N 35°28' E 139°41'0 0.0
2018-Jan-21 02:01N 35°28' E 139°41'0 0.0
2018-Jan-21 01:31N 35°28' E 139°41'0 0.0
2018-Jan-21 01:01N 35°28' E 139°41'0 0.0
2018-Jan-21 00:31N 35°28' E 139°41'0 0.0
2018-Jan-21 00:00N 35°28' E 139°41'0 0.0
2018-Jan-20 23:30N 35°28' E 139°41'0 0.0
2018-Jan-20 23:01N 35°28' E 139°41'3 5.4
2018-Jan-20 22:31N 35°27' E 139°44'4 8.2
2018-Jan-20 22:01N 35°30' E 139°47'1 1.8
2018-Jan-20 21:31N 35°31' E 139°46'4 8.1
2018-Jan-20 21:00N 35°29' E 139°42'3 6.2
2018-Jan-20 20:31N 35°27' E 139°39'0 0.0
2018-Jan-20 20:01N 35°27' E 139°39'0 0.0
2018-Jan-20 08:39N 35°27' E 139°39'0 0.0
2018-Jan-20 08:30N 35°27' E 139°39'3 5.9
2018-Jan-20 08:01N 35°29' E 139°42'4 8.4
2018-Jan-20 07:31N 35°31' E 139°46'1 1.0
2018-Jan-20 07:01N 35°31' E 139°46'3 5.7
2018-Jan-20 06:30N 35°29' E 139°43'2 4.5
2018-Jan-20 06:00N 35°27' E 139°43'2 4.9
2018-Jan-20 05:31N 35°27' E 139°40'1 2.0
2018-Jan-20 05:00N 35°27' E 139°39'0 0.0
2018-Jan-20 04:30N 35°27' E 139°39'0 0.0
2018-Jan-20 04:00N 35°27' E 139°39'0 0.0
2018-Jan-20 03:31N 35°27' E 139°39'0 0.0
2018-Jan-20 03:01N 35°27' E 139°39'0 0.0
2018-Jan-20 02:31N 35°27' E 139°39'0 0.0
2018-Jan-20 02:01N 35°27' E 139°39'0 0.0
2018-Jan-20 01:31N 35°27' E 139°39'1 2.6
2018-Jan-20 01:01N 35°28' E 139°40'0 0.3
2018-Jan-20 00:31N 35°28' E 139°40'3 5.7
2018-Jan-20 00:01N 35°26' E 139°43'1 2.5
2018-Jan-19 23:31N 35°27' E 139°42'0 0.0
2018-Jan-19 23:00N 35°27' E 139°42'1 1.2
2018-Jan-19 22:30N 35°27' E 139°43'5 9.1
2018-Jan-19 21:59N 35°30' E 139°47'1 2.4
2018-Jan-19 21:31N 35°31' E 139°46'5 9.5
2018-Jan-19 21:00N 35°28' E 139°41'2 4.6
2018-Jan-19 20:30N 35°27' E 139°39'0 0.2
2018-Jan-19 20:01N 35°27' E 139°39'0 0.0
2018-Jan-19 19:30N 35°27' E 139°39'0 0.0
2018-Jan-19 08:25N 35°27' E 139°39'0 0.0
2018-Jan-19 08:00N 35°27' E 139°39'0 0.0
2018-Jan-19 07:30N 35°27' E 139°39'0 0.0
2018-Jan-19 07:00N 35°27' E 139°39'0 0.0
2018-Jan-19 06:30N 35°27' E 139°39'0 0.0
2018-Jan-19 06:00N 35°27' E 139°39'0 0.0
2018-Jan-19 05:30N 35°27' E 139°39'0 0.0
2018-Jan-19 05:00N 35°27' E 139°39'0 0.0
2018-Jan-19 04:30N 35°27' E 139°39'0 0.0
2018-Jan-19 04:00N 35°27' E 139°39'0 0.0
2018-Jan-19 03:30N 35°27' E 139°39'0 0.0
2018-Jan-19 03:01N 35°27' E 139°39'0 0.0
2018-Jan-19 02:31N 35°27' E 139°39'0 0.0
2018-Jan-19 02:00N 35°27' E 139°39'2 4.9
2018-Jan-19 01:30N 35°28' E 139°41'5 9.4
2018-Jan-19 01:00N 35°31' E 139°46'0 0.2
2018-Jan-19 00:30N 35°31' E 139°46'1 1.5
2018-Jan-19 00:00N 35°30' E 139°46'0 0.1
2018-Jan-18 23:30N 35°30' E 139°46'5 9.8
2018-Jan-18 23:00N 35°28' E 139°41'1 1.8
2018-Jan-18 22:30N 35°27' E 139°41'1 2.0
2018-Jan-18 22:00N 35°26' E 139°42'2 3.9
2018-Jan-18 21:31N 35°26' E 139°44'0 0.2
2018-Jan-18 21:00N 35°26' E 139°44'5 9.5
2018-Jan-18 20:30N 35°27' E 139°39'0 0.0
2018-Jan-18 20:00N 35°27' E 139°39'0 0.0
2018-Jan-18 19:30N 35°27' E 139°39'0 0.0
2018-Jan-18 19:01N 35°27' E 139°39'0 0.0
2018-Jan-18 18:29N 35°27' E 139°39'0 0.0
2018-Jan-18 18:00N 35°27' E 139°39'0 0.0
2018-Jan-18 17:31N 35°27' E 139°39'0 0.0
2018-Jan-18 17:01N 35°27' E 139°39'0 0.0
2018-Jan-18 16:30N 35°27' E 139°39'0 0.0
2018-Jan-18 16:01N 35°27' E 139°39'0 0.0
2018-Jan-18 15:30N 35°27' E 139°39'0 0.0
2018-Jan-18 15:01N 35°27' E 139°39'0 0.0
2018-Jan-18 14:31N 35°27' E 139°39'0 0.0
2018-Jan-18 14:00N 35°27' E 139°39'0 0.0
2018-Jan-18 13:30N 35°27' E 139°39'0 0.0
2018-Jan-18 13:00N 35°27' E 139°39'0 0.0
2018-Jan-18 12:30N 35°27' E 139°39'0 0.0
2018-Jan-18 12:00N 35°27' E 139°39'0 0.0
2018-Jan-18 11:30N 35°27' E 139°39'0 0.0
2018-Jan-18 11:00N 35°27' E 139°39'0 0.0
2018-Jan-18 10:30N 35°27' E 139°39'0 0.0
2018-Jan-18 09:59N 35°27' E 139°39'0 0.0
2018-Jan-18 09:30N 35°27' E 139°39'0 0.0
2018-Jan-18 09:01N 35°27' E 139°39'0 0.0
2018-Jan-18 08:30N 35°27' E 139°39'0 0.0
2018-Jan-18 08:00N 35°27' E 139°39'0 0.0
2018-Jan-18 07:30N 35°27' E 139°39'1 1.5
2018-Jan-18 07:00N 35°27' E 139°39'0 0.0
2018-Jan-18 06:29N 35°27' E 139°39'2 4.9
2018-Jan-18 06:00N 35°29' E 139°42'4 8.7
2018-Jan-18 05:31N 35°31' E 139°46'1 1.5
2018-Jan-18 05:00N 35°30' E 139°45'4 7.7
2018-Jan-18 04:31N 35°27' E 139°43'1 1.2
2018-Jan-18 04:00N 35°28' E 139°43'3 6.2
2018-Jan-18 03:30N 35°27' E 139°40'1 1.6
2018-Jan-18 03:00N 35°27' E 139°39'0 0.0
2018-Jan-18 02:30N 35°27' E 139°39'0 0.0
2018-Jan-18 02:01N 35°27' E 139°39'0 0.0
2018-Jan-18 01:30N 35°27' E 139°39'0 0.0
2018-Jan-18 01:01N 35°27' E 139°39'0 0.0
2018-Jan-18 00:00N 35°27' E 139°39'0 0.0
2018-Jan-17 23:58N 35°27' E 139°39'  

Dump ship's entire track history